sensor_id;sensor_type;location;lat;lon;timestamp;pressure;altitude;pressure_sealevel;temperature;humidity
9249;BME280;4660;41.768;26.198;2023-02-16T00:01:21;102426.91;;;1.67;100.00
9249;BME280;4660;41.768;26.198;2023-02-16T00:03:48;102418.75;;;1.41;100.00
9249;BME280;4660;41.768;26.198;2023-02-16T00:06:14;102416.88;;;1.46;100.00
9249;BME280;4660;41.768;26.198;2023-02-16T00:08:45;102420.91;;;1.26;100.00
9249;BME280;4660;41.768;26.198;2023-02-16T00:11:31;102415.78;;;1.53;100.00
9249;BME280;4660;41.768;26.198;2023-02-16T00:14:17;102422.38;;;1.38;100.00
9249;BME280;4660;41.768;26.198;2023-02-16T00:16:43;102425.63;;;1.48;100.00
9249;BME280;4660;41.768;26.198;2023-02-16T00:21:44;102414.47;;;1.36;100.00
9249;BME280;4660;41.768;26.198;2023-02-16T00:24:10;102424.16;;;1.37;100.00
9249;BME280;4660;41.768;26.198;2023-02-16T00:26:36;102416.41;;;1.30;100.00
9249;BME280;4660;41.768;26.198;2023-02-16T00:29:01;102422.63;;;1.29;100.00
9249;BME280;4660;41.768;26.198;2023-02-16T00:31:29;102422.41;;;1.36;100.00
9249;BME280;4660;41.768;26.198;2023-02-16T00:33:58;102412.88;;;1.29;100.00
9249;BME280;4660;41.768;26.198;2023-02-16T00:36:24;102418.81;;;1.05;100.00
9249;BME280;4660;41.768;26.198;2023-02-16T00:38:50;102405.91;;;1.25;100.00
9249;BME280;4660;41.768;26.198;2023-02-16T00:41:18;102415.34;;;1.35;100.00
9249;BME280;4660;41.768;26.198;2023-02-16T00:44:04;102417.94;;;1.38;100.00
9249;BME280;4660;41.768;26.198;2023-02-16T00:46:30;102412.78;;;1.32;100.00
9249;BME280;4660;41.768;26.198;2023-02-16T00:48:56;102406.16;;;1.16;100.00
9249;BME280;4660;41.768;26.198;2023-02-16T00:51:21;102412.88;;;1.29;100.00
9249;BME280;4660;41.768;26.198;2023-02-16T00:53:47;102404.84;;;1.32;100.00
9249;BME280;4660;41.768;26.198;2023-02-16T00:56:17;102411.72;;;1.40;100.00
9249;BME280;4660;41.768;26.198;2023-02-16T00:58:43;102399.53;;;1.32;100.00
9249;BME280;4660;41.768;26.198;2023-02-16T01:01:14;102384.03;;;1.17;100.00
9249;BME280;4660;41.768;26.198;2023-02-16T01:03:42;102413.78;;;1.28;100.00
9249;BME280;4660;41.768;26.198;2023-02-16T01:06:09;102408.31;;;1.34;100.00
9249;BME280;4660;41.768;26.198;2023-02-16T01:08:57;102404.94;;;1.28;100.00
9249;BME280;4660;41.768;26.198;2023-02-16T01:11:43;102399.84;;;1.20;100.00
9249;BME280;4660;41.768;26.198;2023-02-16T01:14:11;102397.22;;;0.85;100.00
9249;BME280;4660;41.768;26.198;2023-02-16T01:16:40;102397.06;;;0.91;100.00
9249;BME280;4660;41.768;26.198;2023-02-16T01:19:06;102388.94;;;0.24;100.00
9249;BME280;4660;41.768;26.198;2023-02-16T01:21:32;102387.94;;;-0.11;100.00
9249;BME280;4660;41.768;26.198;2023-02-16T01:23:58;102378.53;;;-0.25;100.00
9249;BME280;4660;41.768;26.198;2023-02-16T01:26:23;102378.06;;;-0.03;100.00
9249;BME280;4660;41.768;26.198;2023-02-16T01:28:49;102381.34;;;-0.33;100.00
9249;BME280;4660;41.768;26.198;2023-02-16T01:31:15;102387.06;;;-0.54;100.00
9249;BME280;4660;41.768;26.198;2023-02-16T01:33:41;102376.78;;;-0.70;100.00
9249;BME280;4660;41.768;26.198;2023-02-16T01:36:26;102385.66;;;-0.74;100.00
9249;BME280;4660;41.768;26.198;2023-02-16T01:38:53;102393.31;;;-0.60;100.00
9249;BME280;4660;41.768;26.198;2023-02-16T01:49:47;102386.38;;;-0.66;100.00
9249;BME280;4660;41.768;26.198;2023-02-16T01:52:33;102393.44;;;-0.66;100.00
9249;BME280;4660;41.768;26.198;2023-02-16T01:57:41;102384.50;;;-0.59;100.00
9249;BME280;4660;41.768;26.198;2023-02-16T02:02:42;102380.47;;;-0.34;100.00
9249;BME280;4660;41.768;26.198;2023-02-16T02:08:08;102389.75;;;0.27;100.00
9249;BME280;4660;41.768;26.198;2023-02-16T02:13:40;102384.25;;;0.37;100.00
9249;BME280;4660;41.768;26.198;2023-02-16T02:16:09;102391.81;;;0.53;100.00
9249;BME280;4660;41.768;26.198;2023-02-16T02:18:35;102390.44;;;0.36;100.00
9249;BME280;4660;41.768;26.198;2023-02-16T02:32:37;102391.59;;;0.24;100.00
9249;BME280;4660;41.768;26.198;2023-02-16T02:35:26;102393.03;;;0.39;100.00
9249;BME280;4660;41.768;26.198;2023-02-16T02:38:11;102385.91;;;0.41;100.00
9249;BME280;4660;41.768;26.198;2023-02-16T02:45:53;102399.19;;;0.39;100.00
9249;BME280;4660;41.768;26.198;2023-02-16T02:48:21;102405.44;;;0.37;100.00
9249;BME280;4660;41.768;26.198;2023-02-16T02:50:56;102398.47;;;0.33;100.00
9249;BME280;4660;41.768;26.198;2023-02-16T02:54:05;102404.56;;;-0.04;100.00
9249;BME280;4660;41.768;26.198;2023-02-16T02:57:07;102406.16;;;0.03;100.00
9249;BME280;4660;41.768;26.198;2023-02-16T03:00:17;102407.91;;;0.04;100.00
9249;BME280;4660;41.768;26.198;2023-02-16T03:05:32;102401.63;;;0.10;100.00
9249;BME280;4660;41.768;26.198;2023-02-16T03:08:04;102406.03;;;0.09;100.00
9249;BME280;4660;41.768;26.198;2023-02-16T03:10:41;102397.56;;;-0.08;100.00
9249;BME280;4660;41.768;26.198;2023-02-16T03:13:31;102400.88;;;-0.40;100.00
9249;BME280;4660;41.768;26.198;2023-02-16T03:16:03;102412.69;;;-0.15;100.00
9249;BME280;4660;41.768;26.198;2023-02-16T03:18:30;102408.19;;;-0.10;100.00
9249;BME280;4660;41.768;26.198;2023-02-16T03:21:17;102408.06;;;-0.04;100.00
9249;BME280;4660;41.768;26.198;2023-02-16T03:24:03;102398.16;;;0.06;100.00
9249;BME280;4660;41.768;26.198;2023-02-16T03:26:48;102399.81;;;0.12;100.00
9249;BME280;4660;41.768;26.198;2023-02-16T03:29:35;102400.75;;;0.09;100.00
9249;BME280;4660;41.768;26.198;2023-02-16T03:32:01;102411.59;;;-0.03;100.00
9249;BME280;4660;41.768;26.198;2023-02-16T03:34:28;102401.91;;;-0.04;100.00
9249;BME280;4660;41.768;26.198;2023-02-16T03:36:56;102400.16;;;-0.05;100.00
9249;BME280;4660;41.768;26.198;2023-02-16T03:39:25;102392.38;;;-0.56;100.00
9249;BME280;4660;41.768;26.198;2023-02-16T03:41:52;102398.38;;;-0.96;100.00
9249;BME280;4660;41.768;26.198;2023-02-16T03:44:19;102413.81;;;-0.73;100.00
9249;BME280;4660;41.768;26.198;2023-02-16T03:46:45;102408.25;;;-1.07;100.00
9249;BME280;4660;41.768;26.198;2023-02-16T03:49:14;102399.00;;;-0.81;100.00
9249;BME280;4660;41.768;26.198;2023-02-16T03:51:40;102407.03;;;-0.88;100.00
9249;BME280;4660;41.768;26.198;2023-02-16T03:54:06;102409.25;;;-1.14;100.00
9249;BME280;4660;41.768;26.198;2023-02-16T03:56:31;102401.56;;;-0.77;100.00
9249;BME280;4660;41.768;26.198;2023-02-16T03:58:57;102404.25;;;-0.78;100.00
9249;BME280;4660;41.768;26.198;2023-02-16T04:01:22;102399.59;;;-1.17;100.00
9249;BME280;4660;41.768;26.198;2023-02-16T04:03:48;102391.66;;;-1.14;100.00
9249;BME280;4660;41.768;26.198;2023-02-16T04:06:13;102405.59;;;-1.05;100.00
9249;BME280;4660;41.768;26.198;2023-02-16T04:08:39;102398.09;;;-1.31;100.00
9249;BME280;4660;41.768;26.198;2023-02-16T04:11:05;102395.28;;;-1.21;100.00
9249;BME280;4660;41.768;26.198;2023-02-16T04:13:50;102395.69;;;-0.93;100.00
9249;BME280;4660;41.768;26.198;2023-02-16T04:16:16;102393.50;;;-1.22;100.00
9249;BME280;4660;41.768;26.198;2023-02-16T04:18:41;102393.16;;;-0.99;100.00
9249;BME280;4660;41.768;26.198;2023-02-16T04:21:06;102398.69;;;-0.63;100.00
9249;BME280;4660;41.768;26.198;2023-02-16T04:23:32;102399.22;;;-0.46;100.00
9249;BME280;4660;41.768;26.198;2023-02-16T04:25:57;102407.84;;;-0.36;100.00
9249;BME280;4660;41.768;26.198;2023-02-16T04:28:23;102406.22;;;-0.43;100.00
9249;BME280;4660;41.768;26.198;2023-02-16T04:30:48;102406.25;;;-0.45;100.00
9249;BME280;4660;41.768;26.198;2023-02-16T04:33:16;102416.06;;;-0.51;100.00
9249;BME280;4660;41.768;26.198;2023-02-16T04:35:41;102414.28;;;-0.49;100.00
9249;BME280;4660;41.768;26.198;2023-02-16T04:38:07;102419.47;;;-0.45;100.00
9249;BME280;4660;41.768;26.198;2023-02-16T04:40:32;102418.66;;;-0.48;100.00
9249;BME280;4660;41.768;26.198;2023-02-16T04:42:58;102423.94;;;-0.48;100.00
9249;BME280;4660;41.768;26.198;2023-02-16T04:45:23;102430.09;;;-0.48;100.00
9249;BME280;4660;41.768;26.198;2023-02-16T04:47:49;102431.00;;;-0.49;100.00
9249;BME280;4660;41.768;26.198;2023-02-16T04:50:14;102422.44;;;-0.62;100.00
9249;BME280;4660;41.768;26.198;2023-02-16T04:52:40;102431.97;;;-0.53;100.00
9249;BME280;4660;41.768;26.198;2023-02-16T04:55:06;102425.78;;;-0.52;100.00
9249;BME280;4660;41.768;26.198;2023-02-16T04:57:38;102444.28;;;-0.52;100.00
9249;BME280;4660;41.768;26.198;2023-02-16T05:00:07;102444.28;;;-0.52;100.00
9249;BME280;4660;41.768;26.198;2023-02-16T05:02:33;102442.56;;;-0.54;100.00
9249;BME280;4660;41.768;26.198;2023-02-16T05:04:58;102435.97;;;-0.80;100.00
9249;BME280;4660;41.768;26.198;2023-02-16T05:07:24;102448.41;;;-0.87;100.00
9249;BME280;4660;41.768;26.198;2023-02-16T05:09:50;102427.41;;;-0.94;100.00
9249;BME280;4660;41.768;26.198;2023-02-16T05:12:16;102442.94;;;-0.76;100.00
9249;BME280;4660;41.768;26.198;2023-02-16T05:15:00;102446.66;;;-0.88;100.00
9249;BME280;4660;41.768;26.198;2023-02-16T05:17:26;102454.38;;;-1.29;100.00
9249;BME280;4660;41.768;26.198;2023-02-16T05:19:57;102453.53;;;-1.31;100.00
9249;BME280;4660;41.768;26.198;2023-02-16T05:22:23;102463.72;;;-1.67;100.00
9249;BME280;4660;41.768;26.198;2023-02-16T05:24:50;102442.28;;;-1.46;100.00
9249;BME280;4660;41.768;26.198;2023-02-16T05:27:18;102451.19;;;-1.53;100.00
9249;BME280;4660;41.768;26.198;2023-02-16T05:29:44;102459.19;;;-1.59;100.00
9249;BME280;4660;41.768;26.198;2023-02-16T05:32:10;102473.38;;;-1.66;100.00
9249;BME280;4660;41.768;26.198;2023-02-16T05:34:36;102475.19;;;-1.73;100.00
9249;BME280;4660;41.768;26.198;2023-02-16T05:37:01;102454.69;;;-1.51;100.00
9249;BME280;4660;41.768;26.198;2023-02-16T05:39:28;102469.28;;;-1.25;100.00
9249;BME280;4660;41.768;26.198;2023-02-16T05:41:53;102462.03;;;-1.11;100.00
9249;BME280;4660;41.768;26.198;2023-02-16T05:44:19;102469.50;;;-0.84;100.00
9249;BME280;4660;41.768;26.198;2023-02-16T05:46:45;102471.59;;;-1.04;100.00
9249;BME280;4660;41.768;26.198;2023-02-16T05:49:12;102480.50;;;-1.11;100.00
9249;BME280;4660;41.768;26.198;2023-02-16T05:51:38;102473.50;;;-1.15;100.00
9249;BME280;4660;41.768;26.198;2023-02-16T05:54:04;102483.78;;;-0.95;100.00
9249;BME280;4660;41.768;26.198;2023-02-16T05:56:30;102479.94;;;-0.76;100.00
9249;BME280;4660;41.768;26.198;2023-02-16T05:58:59;102476.47;;;-0.79;100.00
9249;BME280;4660;41.768;26.198;2023-02-16T06:01:26;102482.78;;;-0.37;100.00
9249;BME280;4660;41.768;26.198;2023-02-16T06:03:51;102485.88;;;-0.15;100.00
9249;BME280;4660;41.768;26.198;2023-02-16T06:06:17;102490.09;;;-0.04;100.00
9249;BME280;4660;41.768;26.198;2023-02-16T06:08:44;102487.16;;;0.10;100.00
9249;BME280;4660;41.768;26.198;2023-02-16T06:11:10;102488.59;;;0.26;100.00
9249;BME280;4660;41.768;26.198;2023-02-16T06:13:56;102484.91;;;0.34;100.00
9249;BME280;4660;41.768;26.198;2023-02-16T06:16:28;102486.47;;;0.44;100.00
9249;BME280;4660;41.768;26.198;2023-02-16T06:18:55;102490.88;;;0.45;100.00
9249;BME280;4660;41.768;26.198;2023-02-16T06:21:21;102489.81;;;0.52;100.00
9249;BME280;4660;41.768;26.198;2023-02-16T06:23:47;102487.84;;;0.62;100.00
9249;BME280;4660;41.768;26.198;2023-02-16T06:26:14;102491.25;;;0.67;100.00
9249;BME280;4660;41.768;26.198;2023-02-16T06:28:39;102489.34;;;0.73;100.00
9249;BME280;4660;41.768;26.198;2023-02-16T06:31:05;102495.66;;;0.68;100.00
9249;BME280;4660;41.768;26.198;2023-02-16T06:33:30;102487.78;;;0.63;100.00
9249;BME280;4660;41.768;26.198;2023-02-16T06:35:56;102501.78;;;0.70;100.00
9249;BME280;4660;41.768;26.198;2023-02-16T06:38:21;102508.44;;;0.88;100.00
9249;BME280;4660;41.768;26.198;2023-02-16T06:40:47;102499.72;;;0.82;100.00
9249;BME280;4660;41.768;26.198;2023-02-16T06:43:15;102503.25;;;0.83;100.00
9249;BME280;4660;41.768;26.198;2023-02-16T06:45:40;102498.47;;;0.60;100.00
9249;BME280;4660;41.768;26.198;2023-02-16T06:48:06;102503.09;;;0.50;100.00
9249;BME280;4660;41.768;26.198;2023-02-16T06:50:31;102508.50;;;0.85;100.00
9249;BME280;4660;41.768;26.198;2023-02-16T06:52:57;102513.31;;;1.06;100.00
9249;BME280;4660;41.768;26.198;2023-02-16T06:55:22;102499.81;;;1.17;100.00
9249;BME280;4660;41.768;26.198;2023-02-16T06:57:48;102513.47;;;1.35;100.00
9249;BME280;4660;41.768;26.198;2023-02-16T07:00:14;102511.72;;;1.36;100.00
9249;BME280;4660;41.768;26.198;2023-02-16T07:02:40;102504.44;;;1.43;100.00
9249;BME280;4660;41.768;26.198;2023-02-16T07:05:08;102506.84;;;1.53;100.00
9249;BME280;4660;41.768;26.198;2023-02-16T07:07:33;102512.41;;;1.77;100.00
9249;BME280;4660;41.768;26.198;2023-02-16T07:09:59;102521.94;;;1.84;100.00
9249;BME280;4660;41.768;26.198;2023-02-16T07:12:24;102513.63;;;1.63;100.00
9249;BME280;4660;41.768;26.198;2023-02-16T07:14:50;102486.94;;;1.35;100.00
9249;BME280;4660;41.768;26.198;2023-02-16T07:17:16;102509.03;;;1.72;100.00
9249;BME280;4660;41.768;26.198;2023-02-16T07:19:41;102517.28;;;1.92;100.00
9249;BME280;4660;41.768;26.198;2023-02-16T07:22:07;102512.41;;;2.09;100.00
9249;BME280;4660;41.768;26.198;2023-02-16T07:24:32;102514.47;;;2.31;100.00
9249;BME280;4660;41.768;26.198;2023-02-16T07:26:58;102514.88;;;2.46;100.00
9249;BME280;4660;41.768;26.198;2023-02-16T07:29:23;102515.53;;;2.55;100.00
9249;BME280;4660;41.768;26.198;2023-02-16T07:31:48;102517.94;;;2.62;100.00
9249;BME280;4660;41.768;26.198;2023-02-16T07:34:15;102513.69;;;2.57;100.00
9249;BME280;4660;41.768;26.198;2023-02-16T07:36:41;102504.53;;;2.67;100.00
9249;BME280;4660;41.768;26.198;2023-02-16T07:39:06;102487.09;;;2.57;100.00
9249;BME280;4660;41.768;26.198;2023-02-16T07:41:32;102505.78;;;2.83;100.00
9249;BME280;4660;41.768;26.198;2023-02-16T07:43:57;102504.59;;;2.93;100.00
9249;BME280;4660;41.768;26.198;2023-02-16T07:46:23;102505.22;;;3.01;100.00
9249;BME280;4660;41.768;26.198;2023-02-16T07:48:49;102489.22;;;3.03;100.00
9249;BME280;4660;41.768;26.198;2023-02-16T07:51:26;102502.44;;;3.33;100.00
9249;BME280;4660;41.768;26.198;2023-02-16T07:53:52;102493.44;;;3.37;100.00
9249;BME280;4660;41.768;26.198;2023-02-16T07:56:24;102501.03;;;3.47;100.00
9249;BME280;4660;41.768;26.198;2023-02-16T07:58:51;102487.13;;;3.66;100.00
9249;BME280;4660;41.768;26.198;2023-02-16T08:01:16;102490.81;;;3.86;100.00
9249;BME280;4660;41.768;26.198;2023-02-16T08:03:42;102489.34;;;4.03;100.00
9249;BME280;4660;41.768;26.198;2023-02-16T08:06:08;102476.94;;;4.02;100.00
9249;BME280;4660;41.768;26.198;2023-02-16T08:08:34;102470.34;;;4.12;100.00
9249;BME280;4660;41.768;26.198;2023-02-16T08:13:38;102483.97;;;4.28;100.00
9249;BME280;4660;41.768;26.198;2023-02-16T08:16:12;102474.72;;;4.38;100.00
9249;BME280;4660;41.768;26.198;2023-02-16T08:18:38;102478.69;;;4.50;100.00
9249;BME280;4660;41.768;26.198;2023-02-16T08:21:19;102455.53;;;4.74;100.00
9249;BME280;4660;41.768;26.198;2023-02-16T08:24:10;102454.28;;;4.60;100.00
9249;BME280;4660;41.768;26.198;2023-02-16T08:26:39;102478.00;;;4.90;100.00
9249;BME280;4660;41.768;26.198;2023-02-16T08:29:06;102474.22;;;4.95;100.00
9249;BME280;4660;41.768;26.198;2023-02-16T08:31:36;102466.69;;;5.05;100.00
9249;BME280;4660;41.768;26.198;2023-02-16T08:34:05;102446.03;;;5.10;100.00
9249;BME280;4660;41.768;26.198;2023-02-16T08:36:43;102472.03;;;5.47;100.00
9249;BME280;4660;41.768;26.198;2023-02-16T08:39:13;102467.59;;;5.68;100.00
9249;BME280;4660;41.768;26.198;2023-02-16T08:41:52;102471.00;;;5.72;100.00
9249;BME280;4660;41.768;26.198;2023-02-16T08:44:20;102459.69;;;5.86;100.00
9249;BME280;4660;41.768;26.198;2023-02-16T08:46:49;102459.19;;;5.98;100.00
9249;BME280;4660;41.768;26.198;2023-02-16T08:49:18;102457.41;;;6.17;100.00
9249;BME280;4660;41.768;26.198;2023-02-16T08:51:52;102458.84;;;6.05;100.00
9249;BME280;4660;41.768;26.198;2023-02-16T08:54:31;102455.78;;;6.15;100.00
9249;BME280;4660;41.768;26.198;2023-02-16T08:57:02;102470.28;;;6.09;100.00
9249;BME280;4660;41.768;26.198;2023-02-16T08:59:29;102453.31;;;6.48;100.00
9249;BME280;4660;41.768;26.198;2023-02-16T09:04:32;102456.06;;;6.65;97.28
9249;BME280;4660;41.768;26.198;2023-02-16T09:07:14;102460.41;;;6.86;98.19
9249;BME280;4660;41.768;26.198;2023-02-16T09:09:40;102435.31;;;6.70;98.25
9249;BME280;4660;41.768;26.198;2023-02-16T09:12:07;102403.22;;;6.70;96.88
9249;BME280;4660;41.768;26.198;2023-02-16T09:14:34;102468.03;;;7.30;95.98
9249;BME280;4660;41.768;26.198;2023-02-16T09:17:01;102458.66;;;7.39;93.92
9249;BME280;4660;41.768;26.198;2023-02-16T09:19:29;102471.88;;;7.42;92.92
9249;BME280;4660;41.768;26.198;2023-02-16T09:21:55;102452.81;;;7.48;91.85
9249;BME280;4660;41.768;26.198;2023-02-16T09:24:23;102477.56;;;7.53;90.28
9249;BME280;4660;41.768;26.198;2023-02-16T09:26:57;102454.84;;;7.78;89.94
9249;BME280;4660;41.768;26.198;2023-02-16T09:31:58;102420.59;;;7.50;90.43
9249;BME280;4660;41.768;26.198;2023-02-16T09:34:27;102455.25;;;7.70;93.66
9249;BME280;4660;41.768;26.198;2023-02-16T09:36:57;102365.28;;;7.66;91.24
9249;BME280;4660;41.768;26.198;2023-02-16T09:39:23;102375.53;;;7.91;90.12
9249;BME280;4660;41.768;26.198;2023-02-16T09:42:33;102389.53;;;8.29;88.49
9249;BME280;4660;41.768;26.198;2023-02-16T09:45:10;102450.31;;;8.77;86.84
9249;BME280;4660;41.768;26.198;2023-02-16T09:47:45;102437.50;;;8.82;86.76
9249;BME280;4660;41.768;26.198;2023-02-16T09:50:20;102429.53;;;8.81;85.52
9249;BME280;4660;41.768;26.198;2023-02-16T09:53:07;102432.38;;;8.78;84.71
9249;BME280;4660;41.768;26.198;2023-02-16T09:55:43;102423.81;;;8.71;84.80
9249;BME280;4660;41.768;26.198;2023-02-16T09:58:18;102426.50;;;8.87;84.56
9249;BME280;4660;41.768;26.198;2023-02-16T10:01:06;102406.78;;;8.72;85.57
9249;BME280;4660;41.768;26.198;2023-02-16T10:08:47;102406.97;;;9.15;82.04
9249;BME280;4660;41.768;26.198;2023-02-16T10:14:17;102404.19;;;9.47;80.52
9249;BME280;4660;41.768;26.198;2023-02-16T10:17:10;102395.13;;;9.33;81.05
9249;BME280;4660;41.768;26.198;2023-02-16T10:22:36;102388.75;;;9.50;80.02
9249;BME280;4660;41.768;26.198;2023-02-16T10:30:52;102376.00;;;9.97;78.74
9249;BME280;4660;41.768;26.198;2023-02-16T10:33:42;102374.06;;;9.99;77.97
9249;BME280;4660;41.768;26.198;2023-02-16T10:36:27;102368.69;;;9.99;77.78
9249;BME280;4660;41.768;26.198;2023-02-16T10:39:26;102378.22;;;9.90;78.33
9249;BME280;4660;41.768;26.198;2023-02-16T10:42:20;102362.44;;;10.12;79.26
9249;BME280;4660;41.768;26.198;2023-02-16T10:45:13;102335.22;;;10.45;76.93
9249;BME280;4660;41.768;26.198;2023-02-16T10:47:44;102355.16;;;10.83;76.79
9249;BME280;4660;41.768;26.198;2023-02-16T10:50:45;102357.16;;;11.06;76.05
9249;BME280;4660;41.768;26.198;2023-02-16T10:55:38;102348.41;;;11.29;74.79
9249;BME280;4660;41.768;26.198;2023-02-16T10:58:21;102330.91;;;11.10;75.21
9249;BME280;4660;41.768;26.198;2023-02-16T11:01:05;102335.44;;;11.22;75.05
9249;BME280;4660;41.768;26.198;2023-02-16T11:07:32;102224.22;;;10.82;73.84
9249;BME280;4660;41.768;26.198;2023-02-16T11:10:00;102303.88;;;11.24;74.60
9249;BME280;4660;41.768;26.198;2023-02-16T11:12:43;102221.53;;;10.94;73.08
9249;BME280;4660;41.768;26.198;2023-02-16T11:17:55;102311.94;;;11.49;71.20
9249;BME280;4660;41.768;26.198;2023-02-16T11:25:38;102287.53;;;12.02;69.93
9249;BME280;4660;41.768;26.198;2023-02-16T11:28:04;102227.63;;;11.60;69.20
9249;BME280;4660;41.768;26.198;2023-02-16T11:30:43;102180.88;;;11.36;69.53
9249;BME280;4660;41.768;26.198;2023-02-16T11:33:24;102290.13;;;12.27;68.97
9249;BME280;4660;41.768;26.198;2023-02-16T11:35:58;102226.97;;;11.82;69.38
9249;BME280;4660;41.768;26.198;2023-02-16T11:41:04;102261.88;;;11.96;70.51
9249;BME280;4660;41.768;26.198;2023-02-16T11:43:35;102178.28;;;11.47;70.36
9249;BME280;4660;41.768;26.198;2023-02-16T11:46:12;102264.75;;;12.06;69.71
9249;BME280;4660;41.768;26.198;2023-02-16T11:48:39;102265.69;;;12.18;70.67
9249;BME280;4660;41.768;26.198;2023-02-16T11:51:07;102268.22;;;12.32;70.11
9249;BME280;4660;41.768;26.198;2023-02-16T11:53:41;102261.06;;;12.44;68.73
9249;BME280;4660;41.768;26.198;2023-02-16T11:56:24;102264.22;;;12.37;70.09
9249;BME280;4660;41.768;26.198;2023-02-16T12:01:47;102243.91;;;12.56;68.69
9249;BME280;4660;41.768;26.198;2023-02-16T12:18:16;102228.41;;;12.82;67.45
9249;BME280;4660;41.768;26.198;2023-02-16T12:26:46;102209.66;;;13.14;64.81
9249;BME280;4660;41.768;26.198;2023-02-16T12:37:24;102204.59;;;12.98;65.40
9249;BME280;4660;41.768;26.198;2023-02-16T12:42:42;102198.13;;;13.12;65.71
9249;BME280;4660;41.768;26.198;2023-02-16T12:45:19;102202.81;;;13.21;65.56
9249;BME280;4660;41.768;26.198;2023-02-16T12:47:53;102197.53;;;13.08;65.69
9249;BME280;4660;41.768;26.198;2023-02-16T12:50:25;102196.53;;;13.09;65.80
9249;BME280;4660;41.768;26.198;2023-02-16T12:55:49;102186.25;;;13.37;63.77
9249;BME280;4660;41.768;26.198;2023-02-16T12:58:37;102184.66;;;13.45;63.46
9249;BME280;4660;41.768;26.198;2023-02-16T13:01:24;102184.41;;;13.26;63.63
9249;BME280;4660;41.768;26.198;2023-02-16T13:04:05;102173.06;;;13.10;65.01
9249;BME280;4660;41.768;26.198;2023-02-16T13:06:37;102173.56;;;13.15;65.45
9249;BME280;4660;41.768;26.198;2023-02-16T13:14:34;102157.00;;;13.31;64.71
9249;BME280;4660;41.768;26.198;2023-02-16T13:17:17;102161.41;;;13.43;64.29
9249;BME280;4660;41.768;26.198;2023-02-16T13:19:45;102150.59;;;13.54;63.47
9249;BME280;4660;41.768;26.198;2023-02-16T13:33:16;102104.75;;;13.41;61.41
9249;BME280;4660;41.768;26.198;2023-02-16T13:44:46;102127.38;;;13.40;61.37
9249;BME280;4660;41.768;26.198;2023-02-16T13:47:17;102131.56;;;13.44;62.28
9249;BME280;4660;41.768;26.198;2023-02-16T13:49:46;102126.03;;;13.46;61.74
9249;BME280;4660;41.768;26.198;2023-02-16T13:52:38;102131.06;;;13.39;61.85
9249;BME280;4660;41.768;26.198;2023-02-16T13:55:20;102136.22;;;13.42;61.68
9249;BME280;4660;41.768;26.198;2023-02-16T14:03:04;102082.19;;;13.09;61.69
9249;BME280;4660;41.768;26.198;2023-02-16T14:05:40;102139.19;;;13.51;61.23
9249;BME280;4660;41.768;26.198;2023-02-16T14:08:25;102132.16;;;13.48;61.43
9249;BME280;4660;41.768;26.198;2023-02-16T14:13:27;102124.94;;;13.26;62.32
9249;BME280;4660;41.768;26.198;2023-02-16T14:15:56;102112.91;;;13.08;62.47
9249;BME280;4660;41.768;26.198;2023-02-16T14:21:14;102127.16;;;13.21;63.14
9249;BME280;4660;41.768;26.198;2023-02-16T14:23:41;102119.25;;;13.18;62.69
9249;BME280;4660;41.768;26.198;2023-02-16T14:26:11;102107.50;;;13.08;62.48
9249;BME280;4660;41.768;26.198;2023-02-16T14:29:07;102124.34;;;13.23;62.55
9249;BME280;4660;41.768;26.198;2023-02-16T14:31:49;102121.09;;;13.17;62.62
9249;BME280;4660;41.768;26.198;2023-02-16T14:34:31;102123.22;;;13.25;62.90
9249;BME280;4660;41.768;26.198;2023-02-16T14:39:42;102113.50;;;13.45;61.27
9249;BME280;4660;41.768;26.198;2023-02-16T14:42:31;102118.91;;;13.34;61.02
9249;BME280;4660;41.768;26.198;2023-02-16T14:53:19;102122.19;;;12.92;61.90
9249;BME280;4660;41.768;26.198;2023-02-16T14:56:03;102110.91;;;12.76;62.42
9249;BME280;4660;41.768;26.198;2023-02-16T15:01:40;102122.19;;;12.70;62.70
9249;BME280;4660;41.768;26.198;2023-02-16T15:04:08;102106.97;;;12.58;62.82
9249;BME280;4660;41.768;26.198;2023-02-16T15:06:39;102110.53;;;12.70;62.70
9249;BME280;4660;41.768;26.198;2023-02-16T15:12:10;102117.84;;;12.45;63.94
9249;BME280;4660;41.768;26.198;2023-02-16T15:15:02;102116.75;;;12.36;64.06
9249;BME280;4660;41.768;26.198;2023-02-16T15:20:07;102110.69;;;12.33;63.60
9249;BME280;4660;41.768;26.198;2023-02-16T15:22:35;102085.75;;;12.18;63.73
9249;BME280;4660;41.768;26.198;2023-02-16T15:25:27;102097.06;;;12.23;64.03
9249;BME280;4660;41.768;26.198;2023-02-16T15:27:58;102118.66;;;12.23;64.37
9249;BME280;4660;41.768;26.198;2023-02-16T15:30:35;102092.94;;;11.95;65.03
9249;BME280;4660;41.768;26.198;2023-02-16T15:33:10;102101.13;;;11.94;65.43
9249;BME280;4660;41.768;26.198;2023-02-16T15:35:42;102104.66;;;11.70;66.34
9249;BME280;4660;41.768;26.198;2023-02-16T15:40:36;102115.31;;;11.48;67.68
9249;BME280;4660;41.768;26.198;2023-02-16T15:43:08;102108.88;;;11.38;68.29
9249;BME280;4660;41.768;26.198;2023-02-16T15:45:35;102101.38;;;11.17;69.11
9249;BME280;4660;41.768;26.198;2023-02-16T15:48:21;102112.44;;;11.38;68.37
9249;BME280;4660;41.768;26.198;2023-02-16T15:50:49;102115.75;;;11.42;68.00
9249;BME280;4660;41.768;26.198;2023-02-16T15:53:50;102106.97;;;11.14;68.58
9249;BME280;4660;41.768;26.198;2023-02-16T15:56:26;102111.75;;;10.98;69.38
9249;BME280;4660;41.768;26.198;2023-02-16T15:58:54;102040.84;;;10.48;69.36
9249;BME280;4660;41.768;26.198;2023-02-16T16:01:34;102107.69;;;10.67;69.36
9249;BME280;4660;41.768;26.198;2023-02-16T16:04:21;102095.53;;;10.61;69.67
9249;BME280;4660;41.768;26.198;2023-02-16T16:06:48;102106.16;;;10.50;69.86
9249;BME280;4660;41.768;26.198;2023-02-16T16:11:48;102111.44;;;10.39;69.94
9249;BME280;4660;41.768;26.198;2023-02-16T16:14:15;102109.28;;;10.31;69.94
9249;BME280;4660;41.768;26.198;2023-02-16T16:16:43;102089.50;;;10.05;70.30
9249;BME280;4660;41.768;26.198;2023-02-16T16:19:16;102116.97;;;10.10;70.75
9249;BME280;4660;41.768;26.198;2023-02-16T16:21:53;102080.53;;;9.92;70.56